sensor_id;sensor_type;location;lat;lon;timestamp;pressure;altitude;pressure_sealevel;temperature;humidity
35443;BME280;21561;55.654;37.592;2023-03-31T00:00:30;98663.47;;;-0.27;94.30
35443;BME280;21561;55.654;37.592;2023-03-31T00:02:56;98668.38;;;-0.34;94.52
35443;BME280;21561;55.654;37.592;2023-03-31T00:05:24;98662.44;;;-0.35;94.23
35443;BME280;21561;55.654;37.592;2023-03-31T00:07:55;98669.84;;;-0.46;94.22
35443;BME280;21561;55.654;37.592;2023-03-31T00:10:27;98663.00;;;-0.48;94.01
35443;BME280;21561;55.654;37.592;2023-03-31T00:12:54;98663.00;;;-0.48;94.27
35443;BME280;21561;55.654;37.592;2023-03-31T00:15:20;98665.41;;;-0.54;94.00
35443;BME280;21561;55.654;37.592;2023-03-31T00:17:47;98662.28;;;-0.43;94.02
35443;BME280;21561;55.654;37.592;2023-03-31T00:20:15;98658.81;;;-0.46;93.98
35443;BME280;21561;55.654;37.592;2023-03-31T00:22:42;98662.09;;;-0.52;94.25
35443;BME280;21561;55.654;37.592;2023-03-31T00:25:12;98665.28;;;-0.61;93.74
35443;BME280;21561;55.654;37.592;2023-03-31T00:27:42;98667.00;;;-0.60;93.36
35443;BME280;21561;55.654;37.592;2023-03-31T00:30:12;98668.72;;;-0.59;93.40
35443;BME280;21561;55.654;37.592;2023-03-31T00:32:39;98659.28;;;-0.64;93.29
35443;BME280;21561;55.654;37.592;2023-03-31T00:35:06;98663.47;;;-0.65;93.36
35443;BME280;21561;55.654;37.592;2023-03-31T00:37:35;98658.25;;;-0.71;93.53
35443;BME280;21561;55.654;37.592;2023-03-31T00:40:02;98649.75;;;-0.73;93.51
35443;BME280;21561;55.654;37.592;2023-03-31T00:42:39;98642.97;;;-0.71;93.16
35443;BME280;21561;55.654;37.592;2023-03-31T00:45:28;98651.41;;;-0.75;93.04
35443;BME280;21561;55.654;37.592;2023-03-31T00:47:58;98651.41;;;-0.75;93.23
35443;BME280;21561;55.654;37.592;2023-03-31T00:50:31;98648.88;;;-0.73;92.89
35443;BME280;21561;55.654;37.592;2023-03-31T00:53:00;98639.38;;;-0.79;93.34
35443;BME280;21561;55.654;37.592;2023-03-31T00:55:50;98651.19;;;-0.84;93.28
35443;BME280;21561;55.654;37.592;2023-03-31T00:58:15;98659.84;;;-0.76;93.29
35443;BME280;21561;55.654;37.592;2023-03-31T01:00:48;98644.50;;;-0.79;92.77
35443;BME280;21561;55.654;37.592;2023-03-31T01:03:18;98649.25;;;-0.94;92.89
35443;BME280;21561;55.654;37.592;2023-03-31T01:05:49;98645.00;;;-0.94;93.23
35443;BME280;21561;55.654;37.592;2023-03-31T01:08:18;98637.41;;;-0.92;93.24
35443;BME280;21561;55.654;37.592;2023-03-31T01:10:50;98631.50;;;-0.91;93.39
35443;BME280;21561;55.654;37.592;2023-03-31T01:13:18;98630.75;;;-0.87;93.15
35443;BME280;21561;55.654;37.592;2023-03-31T01:15:45;98628.88;;;-0.94;93.46
35443;BME280;21561;55.654;37.592;2023-03-31T01:18:12;98627.31;;;-0.89;93.49
35443;BME280;21561;55.654;37.592;2023-03-31T01:28:42;98619.31;;;-1.05;94.45
35443;BME280;21561;55.654;37.592;2023-03-31T01:44:53;98599.69;;;-1.09;94.64
35443;BME280;21561;55.654;37.592;2023-03-31T01:47:35;98604.88;;;-1.06;94.51
35443;BME280;21561;55.654;37.592;2023-03-31T01:50:17;98597.34;;;-1.00;94.42
35443;BME280;21561;55.654;37.592;2023-03-31T01:52:50;98608.19;;;-1.08;95.21
35443;BME280;21561;55.654;37.592;2023-03-31T01:55:19;98595.66;;;-0.99;94.26
35443;BME280;21561;55.654;37.592;2023-03-31T01:57:51;98589.44;;;-1.12;94.94
35443;BME280;21561;55.654;37.592;2023-03-31T02:00:23;98594.44;;;-1.17;95.33
35443;BME280;21561;55.654;37.592;2023-03-31T02:03:16;98603.66;;;-1.22;95.10
35443;BME280;21561;55.654;37.592;2023-03-31T02:05:52;98591.81;;;-1.20;95.14
35443;BME280;21561;55.654;37.592;2023-03-31T02:08:20;98590.97;;;-1.20;95.05
35443;BME280;21561;55.654;37.592;2023-03-31T02:10:49;98591.63;;;-1.29;94.81
35443;BME280;21561;55.654;37.592;2023-03-31T02:13:17;98585.59;;;-1.32;95.31
35443;BME280;21561;55.654;37.592;2023-03-31T02:15:45;98582.16;;;-1.35;95.36
35443;BME280;21561;55.654;37.592;2023-03-31T02:18:14;98586.50;;;-1.30;95.21
35443;BME280;21561;55.654;37.592;2023-03-31T02:20:42;98588.03;;;-1.37;95.69
35443;BME280;21561;55.654;37.592;2023-03-31T02:23:12;98595.81;;;-1.29;95.26
35443;BME280;21561;55.654;37.592;2023-03-31T02:25:52;98599.22;;;-1.30;95.28
35443;BME280;21561;55.654;37.592;2023-03-31T02:28:21;98596.53;;;-1.35;95.97
35443;BME280;21561;55.654;37.592;2023-03-31T02:33:34;98600.78;;;-1.36;96.30
35443;BME280;21561;55.654;37.592;2023-03-31T02:36:01;98603.38;;;-1.34;96.48
35443;BME280;21561;55.654;37.592;2023-03-31T02:38:29;98602.56;;;-1.31;96.26
35443;BME280;21561;55.654;37.592;2023-03-31T02:40:57;98604.22;;;-1.33;96.53
35443;BME280;21561;55.654;37.592;2023-03-31T02:43:24;98609.47;;;-1.27;96.46
35443;BME280;21561;55.654;37.592;2023-03-31T02:45:51;98602.78;;;-1.22;96.47
35443;BME280;21561;55.654;37.592;2023-03-31T02:50:52;98607.13;;;-1.18;96.41
35443;BME280;21561;55.654;37.592;2023-03-31T02:59:14;98611.47;;;-1.14;96.35
35443;BME280;21561;55.654;37.592;2023-03-31T03:01:56;98598.69;;;-1.16;96.37
35443;BME280;21561;55.654;37.592;2023-03-31T03:04:33;98602.03;;;-1.18;96.07
35443;BME280;21561;55.654;37.592;2023-03-31T03:12:36;98606.00;;;-1.29;96.20
35443;BME280;21561;55.654;37.592;2023-03-31T03:15:10;98605.22;;;-1.27;95.95
35443;BME280;21561;55.654;37.592;2023-03-31T03:17:39;98594.91;;;-1.33;96.17
35443;BME280;21561;55.654;37.592;2023-03-31T03:20:07;98597.56;;;-1.28;96.06
35443;BME280;21561;55.654;37.592;2023-03-31T03:22:38;98596.09;;;-1.17;95.90
35443;BME280;21561;55.654;37.592;2023-03-31T03:25:05;98585.59;;;-1.32;96.95
35443;BME280;21561;55.654;37.592;2023-03-31T03:27:32;98583.00;;;-1.34;96.73
35443;BME280;21561;55.654;37.592;2023-03-31T03:30:01;98575.25;;;-1.39;97.73
35443;BME280;21561;55.654;37.592;2023-03-31T03:32:29;98566.94;;;-1.31;97.45
35443;BME280;21561;55.654;37.592;2023-03-31T03:34:56;98562.94;;;-1.22;97.08
35443;BME280;21561;55.654;37.592;2023-03-31T03:37:22;98563.84;;;-1.18;96.91
35443;BME280;21561;55.654;37.592;2023-03-31T03:39:49;98561.34;;;-1.15;96.68
35443;BME280;21561;55.654;37.592;2023-03-31T03:42:16;98563.91;;;-1.15;97.20
35443;BME280;21561;55.654;37.592;2023-03-31T03:44:43;98566.50;;;-1.13;97.01
35443;BME280;21561;55.654;37.592;2023-03-31T03:47:09;98561.47;;;-1.10;97.18
35443;BME280;21561;55.654;37.592;2023-03-31T03:49:36;98539.59;;;-1.02;97.24
35443;BME280;21561;55.654;37.592;2023-03-31T03:52:02;98546.94;;;-1.16;97.66
35443;BME280;21561;55.654;37.592;2023-03-31T03:54:29;98533.44;;;-1.12;97.65
35443;BME280;21561;55.654;37.592;2023-03-31T03:56:56;98531.63;;;-1.18;97.61
35443;BME280;21561;55.654;37.592;2023-03-31T03:59:23;98536.75;;;-1.16;97.63
35443;BME280;21561;55.654;37.592;2023-03-31T04:01:49;98537.44;;;-1.23;97.75
35443;BME280;21561;55.654;37.592;2023-03-31T04:04:17;98533.34;;;-1.15;97.37
35443;BME280;21561;55.654;37.592;2023-03-31T04:06:43;98530.06;;;-1.11;96.85
35443;BME280;21561;55.654;37.592;2023-03-31T04:09:10;98518.81;;;-1.21;97.65
35443;BME280;21561;55.654;37.592;2023-03-31T04:11:36;98524.78;;;-1.20;97.90
35443;BME280;21561;55.654;37.592;2023-03-31T04:14:03;98526.50;;;-1.19;97.31
35443;BME280;21561;55.654;37.592;2023-03-31T04:16:29;98528.22;;;-1.18;97.34
35443;BME280;21561;55.654;37.592;2023-03-31T04:18:59;98527.28;;;-1.22;97.85
35443;BME280;21561;55.654;37.592;2023-03-31T04:21:29;98528.16;;;-1.21;97.54
35443;BME280;21561;55.654;37.592;2023-03-31T04:24:00;98519.63;;;-1.23;97.82
35443;BME280;21561;55.654;37.592;2023-03-31T04:26:31;98515.25;;;-1.29;97.93
35443;BME280;21561;55.654;37.592;2023-03-31T04:29:09;98517.22;;;-1.16;97.35
35443;BME280;21561;55.654;37.592;2023-03-31T04:31:38;98517.34;;;-1.11;97.17
35443;BME280;21561;55.654;37.592;2023-03-31T04:34:12;98513.84;;;-1.16;97.78
35443;BME280;21561;55.654;37.592;2023-03-31T04:36:40;98507.97;;;-1.12;97.71
35443;BME280;21561;55.654;37.592;2023-03-31T04:39:08;98512.13;;;-1.16;98.00
35443;BME280;21561;55.654;37.592;2023-03-31T04:41:38;98507.84;;;-1.18;97.86
35443;BME280;21561;55.654;37.592;2023-03-31T04:44:04;98503.81;;;-1.08;97.63
35443;BME280;21561;55.654;37.592;2023-03-31T04:46:31;98505.44;;;-1.12;98.14
35443;BME280;21561;55.654;37.592;2023-03-31T04:48:58;98497.09;;;-1.05;98.26
35443;BME280;21561;55.654;37.592;2023-03-31T04:51:26;98497.97;;;-1.03;98.05
35443;BME280;21561;55.654;37.592;2023-03-31T04:53:53;98508.31;;;-0.97;97.87
35443;BME280;21561;55.654;37.592;2023-03-31T04:56:19;98511.75;;;-0.94;97.74
35443;BME280;21561;55.654;37.592;2023-03-31T04:58:48;98505.03;;;-0.91;97.63
35443;BME280;21561;55.654;37.592;2023-03-31T05:01:14;98512.69;;;-0.89;97.67
35443;BME280;21561;55.654;37.592;2023-03-31T05:03:44;98505.16;;;-0.83;97.65
35443;BME280;21561;55.654;37.592;2023-03-31T05:06:13;98496.81;;;-0.76;97.67
35443;BME280;21561;55.654;37.592;2023-03-31T05:08:40;98495.28;;;-0.68;97.93
35443;BME280;21561;55.654;37.592;2023-03-31T05:11:07;98502.25;;;-0.59;97.82
35443;BME280;21561;55.654;37.592;2023-03-31T05:13:34;98504.06;;;-0.53;98.03
35443;BME280;21561;55.654;37.592;2023-03-31T05:16:10;98516.00;;;-0.49;98.15
35443;BME280;21561;55.654;37.592;2023-03-31T05:18:40;98512.81;;;-0.39;98.30
35443;BME280;21561;55.654;37.592;2023-03-31T05:21:10;98511.88;;;-0.44;98.22
35443;BME280;21561;55.654;37.592;2023-03-31T05:23:37;98520.22;;;-0.51;98.27
35443;BME280;21561;55.654;37.592;2023-03-31T05:26:04;98521.09;;;-0.49;98.61
35443;BME280;21561;55.654;37.592;2023-03-31T05:28:31;98512.66;;;-0.47;98.44
35443;BME280;21561;55.654;37.592;2023-03-31T05:30:58;98503.41;;;-0.42;98.28
35443;BME280;21561;55.654;37.592;2023-03-31T05:33:26;98501.81;;;-0.36;98.40
35443;BME280;21561;55.654;37.592;2023-03-31T05:35:53;98491.59;;;-0.36;98.40
35443;BME280;21561;55.654;37.592;2023-03-31T05:38:19;98500.19;;;-0.31;98.39
35443;BME280;21561;55.654;37.592;2023-03-31T05:40:47;98491.78;;;-0.26;98.32
35443;BME280;21561;55.654;37.592;2023-03-31T05:43:13;98504.69;;;-0.16;98.50
35443;BME280;21561;55.654;37.592;2023-03-31T05:45:40;98494.72;;;-0.04;98.48
35443;BME280;21561;55.654;37.592;2023-03-31T05:48:07;98484.72;;;0.08;98.46
35443;BME280;21561;55.654;37.592;2023-03-31T05:50:33;98483.28;;;0.24;98.01
35443;BME280;21561;55.654;37.592;2023-03-31T05:53:00;98474.78;;;0.27;96.76
35443;BME280;21561;55.654;37.592;2023-03-31T05:55:27;98476.38;;;0.18;97.32
35443;BME280;21561;55.654;37.592;2023-03-31T05:57:53;98469.53;;;0.17;95.90
35443;BME280;21561;55.654;37.592;2023-03-31T06:00:20;98465.06;;;0.03;95.86
35443;BME280;21561;55.654;37.592;2023-03-31T06:02:47;98465.91;;;0.00;96.30
35443;BME280;21561;55.654;37.592;2023-03-31T06:05:14;98474.22;;;-0.10;96.34
35443;BME280;21561;55.654;37.592;2023-03-31T06:07:40;98469.91;;;-0.13;96.76
35443;BME280;21561;55.654;37.592;2023-03-31T06:10:07;98464.91;;;-0.08;96.54
35443;BME280;21561;55.654;37.592;2023-03-31T06:12:36;98470.94;;;-0.03;96.40
35443;BME280;21561;55.654;37.592;2023-03-31T06:15:02;98471.75;;;-0.04;96.19
35443;BME280;21561;55.654;37.592;2023-03-31T06:17:29;98476.03;;;-0.03;96.55
35443;BME280;21561;55.654;37.592;2023-03-31T06:19:56;98479.63;;;0.08;96.54
35443;BME280;21561;55.654;37.592;2023-03-31T06:22:22;98478.97;;;0.20;96.56
35443;BME280;21561;55.654;37.592;2023-03-31T06:24:49;98489.25;;;0.26;96.01
35443;BME280;21561;55.654;37.592;2023-03-31T06:27:15;98476.56;;;0.31;96.47
35443;BME280;21561;55.654;37.592;2023-03-31T06:29:42;98480.06;;;0.37;96.13
35443;BME280;21561;55.654;37.592;2023-03-31T06:32:09;98476.78;;;0.46;96.60
35443;BME280;21561;55.654;37.592;2023-03-31T06:34:35;98480.88;;;0.35;94.98
35443;BME280;21561;55.654;37.592;2023-03-31T06:37:02;98469.75;;;0.30;95.34
35443;BME280;21561;55.654;37.592;2023-03-31T06:39:29;98478.13;;;0.23;95.17
35443;BME280;21561;55.654;37.592;2023-03-31T06:41:55;98472.06;;;0.16;94.99
35443;BME280;21561;55.654;37.592;2023-03-31T06:44:22;98470.44;;;0.18;94.62
35443;BME280;21561;55.654;37.592;2023-03-31T06:46:49;98460.78;;;0.00;95.27
35443;BME280;21561;55.654;37.592;2023-03-31T06:49:16;98472.69;;;0.01;95.18
35443;BME280;21561;55.654;37.592;2023-03-31T06:51:43;98477.94;;;0.10;95.02
35443;BME280;21561;55.654;37.592;2023-03-31T06:54:09;98475.41;;;0.12;94.90
35443;BME280;21561;55.654;37.592;2023-03-31T06:56:36;98471.16;;;0.12;95.09
35443;BME280;21561;55.654;37.592;2023-03-31T06:59:03;98473.03;;;0.23;94.98
35443;BME280;21561;55.654;37.592;2023-03-31T07:01:29;98469.78;;;0.33;95.30
35443;BME280;21561;55.654;37.592;2023-03-31T07:03:57;98466.38;;;0.34;95.35
35443;BME280;21561;55.654;37.592;2023-03-31T07:06:23;98454.59;;;0.42;95.02
35443;BME280;21561;55.654;37.592;2023-03-31T07:08:50;98458.78;;;0.37;94.06
35443;BME280;21561;55.654;37.592;2023-03-31T07:11:16;98447.66;;;0.32;94.55
35443;BME280;21561;55.654;37.592;2023-03-31T07:13:46;98455.41;;;0.38;94.81
35443;BME280;21561;55.654;37.592;2023-03-31T07:16:13;98457.91;;;0.35;94.49
35443;BME280;21561;55.654;37.592;2023-03-31T07:18:40;98458.91;;;0.43;95.07
35443;BME280;21561;55.654;37.592;2023-03-31T07:21:07;98454.84;;;0.57;95.24
35443;BME280;21561;55.654;37.592;2023-03-31T07:23:35;98451.47;;;0.62;93.90
35443;BME280;21561;55.654;37.592;2023-03-31T07:26:02;98454.09;;;0.65;94.22
35443;BME280;21561;55.654;37.592;2023-03-31T07:28:29;98443.91;;;0.69;94.89
35443;BME280;21561;55.654;37.592;2023-03-31T07:30:56;98445.75;;;0.80;94.64
35443;BME280;21561;55.654;37.592;2023-03-31T07:33:22;98440.72;;;0.87;94.59
35443;BME280;21561;55.654;37.592;2023-03-31T07:35:49;98445.06;;;0.94;94.66
35443;BME280;21561;55.654;37.592;2023-03-31T07:38:35;98446.69;;;0.85;92.68
35443;BME280;21561;55.654;37.592;2023-03-31T07:41:02;98439.00;;;0.85;93.75
35443;BME280;21561;55.654;37.592;2023-03-31T07:43:35;98443.28;;;0.87;94.19
35443;BME280;21561;55.654;37.592;2023-03-31T07:46:01;98446.81;;;0.99;94.42
35443;BME280;21561;55.654;37.592;2023-03-31T07:48:28;98440.16;;;1.10;94.39
35443;BME280;21561;55.654;37.592;2023-03-31T07:50:55;98437.69;;;1.19;94.53
35443;BME280;21561;55.654;37.592;2023-03-31T07:53:22;98438.63;;;1.27;94.74
35443;BME280;21561;55.654;37.592;2023-03-31T07:55:48;98428.47;;;1.33;93.83
35443;BME280;21561;55.654;37.592;2023-03-31T07:58:15;98421.66;;;1.32;92.36
35443;BME280;21561;55.654;37.592;2023-03-31T08:00:41;98435.03;;;1.08;91.81
35443;BME280;21561;55.654;37.592;2023-03-31T08:03:08;98439.88;;;0.85;92.00
35443;BME280;21561;55.654;37.592;2023-03-31T08:05:35;98432.19;;;0.84;92.46
35443;BME280;21561;55.654;37.592;2023-03-31T08:08:01;98426.28;;;0.86;91.94
35443;BME280;21561;55.654;37.592;2023-03-31T08:10:28;98431.22;;;0.77;92.87
35443;BME280;21561;55.654;37.592;2023-03-31T08:12:54;98426.28;;;0.89;92.32
35443;BME280;21561;55.654;37.592;2023-03-31T08:15:21;98428.81;;;0.86;92.48
35443;BME280;21561;55.654;37.592;2023-03-31T08:17:48;98424.53;;;0.85;91.75
35443;BME280;21561;55.654;37.592;2023-03-31T08:20:14;98416.06;;;0.89;92.09
35443;BME280;21561;55.654;37.592;2023-03-31T08:22:41;98405.91;;;0.92;91.96
35443;BME280;21561;55.654;37.592;2023-03-31T08:25:08;98400.88;;;1.02;92.08
35443;BME280;21561;55.654;37.592;2023-03-31T08:27:36;98394.25;;;1.19;91.83
35443;BME280;21561;55.654;37.592;2023-03-31T08:30:04;98395.09;;;1.15;91.80
35443;BME280;21561;55.654;37.592;2023-03-31T08:32:32;98392.53;;;1.18;91.99
35443;BME280;21561;55.654;37.592;2023-03-31T08:35:00;98380.75;;;1.29;91.05
35443;BME280;21561;55.654;37.592;2023-03-31T08:37:26;98386.50;;;1.10;91.42
35443;BME280;21561;55.654;37.592;2023-03-31T08:39:54;98388.16;;;1.05;91.75
35443;BME280;21561;55.654;37.592;2023-03-31T08:44:59;98367.84;;;1.17;91.76
35443;BME280;21561;55.654;37.592;2023-03-31T08:47:28;98370.41;;;1.17;92.12
35443;BME280;21561;55.654;37.592;2023-03-31T08:49:59;98374.72;;;1.24;92.17
35443;BME280;21561;55.654;37.592;2023-03-31T08:52:30;98373.13;;;1.36;91.45
35443;BME280;21561;55.654;37.592;2023-03-31T08:55:00;98368.78;;;1.28;91.60
35443;BME280;21561;55.654;37.592;2023-03-31T08:57:51;98375.59;;;1.26;91.42
35443;BME280;21561;55.654;37.592;2023-03-31T11:45:18;98181.84;;;2.40;91.83
35443;BME280;21561;55.654;37.592;2023-03-31T11:47:48;98192.91;;;2.27;92.04
35443;BME280;21561;55.654;37.592;2023-03-31T11:52:49;98196.34;;;2.31;92.52
35443;BME280;21561;55.654;37.592;2023-03-31T11:55:19;98191.25;;;2.40;92.52
35443;BME280;21561;55.654;37.592;2023-03-31T11:57:50;98192.13;;;2.45;92.60
35443;BME280;21561;55.654;37.592;2023-03-31T12:00:18;98185.28;;;2.48;92.69
35443;BME280;21561;55.654;37.592;2023-03-31T12:02:51;98181.88;;;2.53;92.82
35443;BME280;21561;55.654;37.592;2023-03-31T12:05:20;98176.78;;;2.56;92.87
35443;BME280;21561;55.654;37.592;2023-03-31T12:10:34;98169.94;;;2.58;93.18
35443;BME280;21561;55.654;37.592;2023-03-31T12:15:32;98173.34;;;2.60;93.35
35443;BME280;21561;55.654;37.592;2023-03-31T12:18:14;98167.41;;;2.64;93.39
35443;BME280;21561;55.654;37.592;2023-03-31T12:20:44;98164.84;;;2.70;93.37
35443;BME280;21561;55.654;37.592;2023-03-31T12:23:16;98167.41;;;2.64;92.08
35443;BME280;21561;55.654;37.592;2023-03-31T12:28:10;98163.09;;;2.44;92.74
35443;BME280;21561;55.654;37.592;2023-03-31T12:30:37;98159.69;;;2.45;92.74
35443;BME280;21561;55.654;37.592;2023-03-31T12:46:25;98137.50;;;2.69;93.20
35443;BME280;21561;55.654;37.592;2023-03-31T12:49:05;98135.78;;;2.65;93.04
35443;BME280;21561;55.654;37.592;2023-03-31T12:51:57;98147.75;;;2.51;92.94
35443;BME280;21561;55.654;37.592;2023-03-31T12:54:34;98133.22;;;2.43;93.19
35443;BME280;21561;55.654;37.592;2023-03-31T12:57:04;98135.78;;;2.43;93.18
35443;BME280;21561;55.654;37.592;2023-03-31T12:59:38;98137.50;;;2.44;93.08
35443;BME280;21561;55.654;37.592;2023-03-31T13:04:35;98126.38;;;2.27;93.39
35443;BME280;21561;55.654;37.592;2023-03-31T13:07:02;98124.69;;;2.24;93.40
35443;BME280;21561;55.654;37.592;2023-03-31T13:09:40;98120.38;;;2.19;93.33
35443;BME280;21561;55.654;37.592;2023-03-31T13:12:11;98124.63;;;2.07;93.58
35443;BME280;21561;55.654;37.592;2023-03-31T13:14:39;98116.94;;;2.01;93.75
35443;BME280;21561;55.654;37.592;2023-03-31T13:19:43;98123.75;;;1.96;93.92
35443;BME280;21561;55.654;37.592;2023-03-31T13:27:56;98116.97;;;2.14;93.96
35443;BME280;21561;55.654;37.592;2023-03-31T13:33:08;98111.88;;;2.23;94.40
35443;BME280;21561;55.654;37.592;2023-03-31T13:35:37;98108.47;;;2.30;94.48
35443;BME280;21561;55.654;37.592;2023-03-31T14:06:48;98094.69;;;1.79;95.79
35443;BME280;21561;55.654;37.592;2023-03-31T14:11:59;98087.06;;;1.85;95.80
35443;BME280;21561;55.654;37.592;2023-03-31T14:14:26;98089.59;;;1.86;96.07
35443;BME280;21561;55.654;37.592;2023-03-31T14:16:58;98078.53;;;1.87;95.85
35443;BME280;21561;55.654;37.592;2023-03-31T14:32:44;98081.94;;;1.85;96.33
35443;BME280;21561;55.654;37.592;2023-03-31T14:35:25;98083.63;;;1.86;96.21
35443;BME280;21561;55.654;37.592;2023-03-31T14:37:54;98073.38;;;1.83;96.57
35443;BME280;21561;55.654;37.592;2023-03-31T14:40:21;98071.69;;;1.82;96.82
35443;BME280;21561;55.654;37.592;2023-03-31T14:42:49;98074.28;;;1.85;96.74
35443;BME280;21561;55.654;37.592;2023-03-31T14:45:17;98076.81;;;1.88;96.63
35443;BME280;21561;55.654;37.592;2023-03-31T14:47:55;98069.16;;;1.88;96.61
35443;BME280;21561;55.654;37.592;2023-03-31T14:50:26;98067.44;;;1.90;96.76
35443;BME280;21561;55.654;37.592;2023-03-31T14:52:53;98067.44;;;1.90;96.64
35443;BME280;21561;55.654;37.592;2023-03-31T14:55:21;98064.88;;;1.91;96.80
35443;BME280;21561;55.654;37.592;2023-03-31T14:57:53;98070.88;;;1.95;97.11
35443;BME280;21561;55.654;37.592;2023-03-31T15:00:26;98069.16;;;1.97;97.15
35443;BME280;21561;55.654;37.592;2023-03-31T15:02:55;98068.34;;;2.01;97.14
35443;BME280;21561;55.654;37.592;2023-03-31T15:05:29;98074.31;;;2.03;97.42
35443;BME280;21561;55.654;37.592;2023-03-31T15:07:57;98072.59;;;2.05;97.41
35443;BME280;21561;55.654;37.592;2023-03-31T15:10:25;98069.19;;;2.05;97.61
35443;BME280;21561;55.654;37.592;2023-03-31T15:12:56;98074.31;;;2.03;97.68
35443;BME280;21561;55.654;37.592;2023-03-31T15:15:22;98072.59;;;2.02;97.63
35443;BME280;21561;55.654;37.592;2023-03-31T15:17:50;98072.59;;;1.99;97.94
35443;BME280;21561;55.654;37.592;2023-03-31T15:20:24;98076.00;;;2.01;98.12
35443;BME280;21561;55.654;37.592;2023-03-31T15:22:51;98074.31;;;2.03;97.95
35443;BME280;21561;55.654;37.592;2023-03-31T15:25:17;98069.19;;;2.08;98.22
35443;BME280;21561;55.654;37.592;2023-03-31T15:27:49;98070.91;;;2.09;98.36
35443;BME280;21561;55.654;37.592;2023-03-31T15:30:23;98064.09;;;2.13;98.14
35443;BME280;21561;55.654;37.592;2023-03-31T15:32:50;98058.94;;;2.09;98.19
35443;BME280;21561;55.654;37.592;2023-03-31T15:35:29;98064.94;;;2.07;98.35
35443;BME280;21561;55.654;37.592;2023-03-31T15:37:57;98064.94;;;2.05;98.58
35443;BME280;21561;55.654;37.592;2023-03-31T15:40:40;98068.31;;;2.04;98.66
35443;BME280;21561;55.654;37.592;2023-03-31T15:43:16;98067.47;;;2.02;98.62
35443;BME280;21561;55.654;37.592;2023-03-31T15:45:54;98061.50;;;2.03;98.80
35443;BME280;21561;55.654;37.592;2023-03-31T15:48:22;98064.06;;;2.00;98.84
35443;BME280;21561;55.654;37.592;2023-03-31T15:50:51;98066.63;;;2.02;98.80
35443;BME280;21561;55.654;37.592;2023-03-31T15:54:11;98067.47;;;2.02;98.89
35443;BME280;21561;55.654;37.592;2023-03-31T15:56:05;98071.72;;;2.00;99.14
35443;BME280;21561;55.654;37.592;2023-03-31T15:58:46;98068.34;;;2.00;98.99
35443;BME280;21561;55.654;37.592;2023-03-31T16:01:13;98070.03;;;1.98;99.05
35443;BME280;21561;55.654;37.592;2023-03-31T16:03:41;98073.44;;;1.97;99.17
35443;BME280;21561;55.654;37.592;2023-03-31T16:06:15;98067.47;;;1.96;99.24
35443;BME280;21561;55.654;37.592;2023-03-31T16:08:44;98064.91;;;1.95;99.42
35443;BME280;21561;55.654;37.592;2023-03-31T16:11:14;98065.75;;;1.92;99.37
35443;BME280;21561;55.654;37.592;2023-03-31T16:13:44;98068.31;;;1.92;99.52
35443;BME280;21561;55.654;37.592;2023-03-31T16:16:14;98069.16;;;1.91;99.62
35443;BME280;21561;55.654;37.592;2023-03-31T16:18:44;98064.88;;;1.90;99.70
35443;BME280;21561;55.654;37.592;2023-03-31T16:21:12;98065.75;;;1.89;99.68
35443;BME280;21561;55.654;37.592;2023-03-31T16:23:41;98066.59;;;1.91;99.63
35443;BME280;21561;55.654;37.592;2023-03-31T16:26:10;98066.59;;;1.89;99.90
35443;BME280;21561;55.654;37.592;2023-03-31T16:28:37;98065.75;;;1.92;99.94
35443;BME280;21561;55.654;37.592;2023-03-31T16:31:04;98064.06;;;1.94;99.92
35443;BME280;21561;55.654;37.592;2023-03-31T16:33:50;98065.75;;;1.95;99.76
35443;BME280;21561;55.654;37.592;2023-03-31T16:36:17;98070.03;;;1.96;99.85
35443;BME280;21561;55.654;37.592;2023-03-31T16:38:44;98064.03;;;1.97;99.97
35443;BME280;21561;55.654;37.592;2023-03-31T16:41:10;98062.34;;;1.96;100.00
35443;BME280;21561;55.654;37.592;2023-03-31T16:43:38;98066.63;;;1.94;100.00
35443;BME280;21561;55.654;37.592;2023-03-31T16:46:04;98066.63;;;1.94;99.97
35443;BME280;21561;55.654;37.592;2023-03-31T16:48:31;98061.50;;;1.93;100.00
35443;BME280;21561;55.654;37.592;2023-03-31T16:50:59;98065.75;;;1.92;100.00
35443;BME280;21561;55.654;37.592;2023-03-31T16:53:27;98058.09;;;1.90;100.00
35443;BME280;21561;55.654;37.592;2023-03-31T16:55:55;98060.66;;;1.92;100.00
35443;BME280;21561;55.654;37.592;2023-03-31T16:58:22;98064.88;;;1.90;100.00
35443;BME280;21561;55.654;37.592;2023-03-31T17:00:50;98059.78;;;1.87;100.00
35443;BME280;21561;55.654;37.592;2023-03-31T17:03:17;98064.88;;;1.85;100.00
35443;BME280;21561;55.654;37.592;2023-03-31T17:05:45;98059.75;;;1.82;100.00
35443;BME280;21561;55.654;37.592;2023-03-31T17:08:13;98065.72;;;1.75;100.00
35443;BME280;21561;55.654;37.592;2023-03-31T17:10:40;98060.59;;;1.74;100.00
35443;BME280;21561;55.654;37.592;2023-03-31T17:13:07;98070.81;;;1.74;100.00
35443;BME280;21561;55.654;37.592;2023-03-31T17:15:34;98069.09;;;1.76;100.00
35443;BME280;21561;55.654;37.592;2023-03-31T17:18:05;98067.41;;;1.75;100.00
35443;BME280;21561;55.654;37.592;2023-03-31T17:20:32;98068.25;;;1.74;100.00
35443;BME280;21561;55.654;37.592;2023-03-31T17:22:59;98060.59;;;1.74;100.00
35443;BME280;21561;55.654;37.592;2023-03-31T17:25:27;98061.44;;;1.76;100.00
35443;BME280;21561;55.654;37.592;2023-03-31T17:27:53;98062.31;;;1.75;100.00
35443;BME280;21561;55.654;37.592;2023-03-31T17:30:26;98052.94;;;1.77;100.00
35443;BME280;21561;55.654;37.592;2023-03-31T17:32:53;98052.09;;;1.76;100.00
35443;BME280;21561;55.654;37.592;2023-03-31T17:35:20;98043.53;;;1.76;100.00
35443;BME280;21561;55.654;37.592;2023-03-31T17:37:48;98041.84;;;1.75;100.00
35443;BME280;21561;55.654;37.592;2023-03-31T17:40:19;98045.25;;;1.74;100.00
35443;BME280;21561;55.654;37.592;2023-03-31T17:42:46;98045.25;;;1.74;100.00
35443;BME280;21561;55.654;37.592;2023-03-31T17:45:13;98041.84;;;1.71;100.00
35443;BME280;21561;55.654;37.592;2023-03-31T17:47:39;98045.22;;;1.70;100.00
35443;BME280;21561;55.654;37.592;2023-03-31T17:50:07;98043.53;;;1.68;100.00
35443;BME280;21561;55.654;37.592;2023-03-31T17:52:34;98035.00;;;1.70;100.00